Time;durP1;ratioP1;P1;durP2;ratioP2;P2;SDS_P1;SDS_P2;PMS_P1;PMS_P2;Temp;Humidity;BMP_temperature;BMP_pressure;BME280_temperature;BME280_humidity;BME280_pressure;Samples;Min_cycle;Max_cycle;Signal;HPM_P1;HPM_P2
2023/03/29 00:00:15;;;;;;;1.60;1.47;;;2.80;97.30;;;;;;5091667;28;20619;-88
2023/03/29 00:02:42;;;;;;;1.57;1.47;;;2.80;97.30;;;;;;5100977;28;20182;-87
2023/03/29 00:05:09;;;;;;;1.63;1.53;;;2.80;97.30;;;;;;5103022;28;20702;-87
2023/03/29 00:07:35;;;;;;;5.17;1.53;;;2.80;97.30;;;;;;5095505;28;20421;-86
2023/03/29 00:10:03;;;;;;;4.50;1.97;;;2.70;97.30;;;;;;5107364;28;20443;-85
2023/03/29 00:12:29;;;;;;;1.30;1.20;;;2.70;97.30;;;;;;5114634;28;20182;-86
2023/03/29 00:14:55;;;;;;;13.80;2.80;;;2.70;97.30;;;;;;5115666;28;20456;-87
2023/03/29 00:17:20;;;;;;;3.63;1.53;;;2.70;97.30;;;;;;5102607;28;20504;-84
2023/03/29 00:19:46;;;;;;;1.33;1.23;;;2.60;97.30;;;;;;5112587;28;20256;-84
2023/03/29 00:22:12;;;;;;;2.90;1.73;;;2.60;97.30;;;;;;5109792;28;20177;-83
2023/03/29 00:24:37;;;;;;;1.47;1.37;;;2.50;97.30;;;;;;5109653;28;20186;-86
2023/03/29 00:27:03;;;;;;;1.87;1.77;;;2.50;97.30;;;;;;5108387;28;20182;-84
2023/03/29 00:29:29;;;;;;;1.40;1.30;;;2.50;97.30;;;;;;5109393;28;20440;-86
2023/03/29 00:31:55;;;;;;;1.30;1.20;;;2.50;97.30;;;;;;5112787;28;20222;-83
2023/03/29 00:34:25;;;;;;;1.77;1.40;;;2.50;97.30;;;;;;5115987;28;20841;-84
2023/03/29 00:36:51;;;;;;;1.43;1.33;;;2.40;97.30;;;;;;5102253;28;20708;-86
2023/03/29 00:39:19;;;;;;;1.33;1.23;;;2.40;97.30;;;;;;5107897;28;20850;-84
2023/03/29 00:41:46;;;;;;;1.83;1.20;;;2.30;97.30;;;;;;5114301;28;20454;-87
2023/03/29 00:44:49;;;;;;;1.63;1.63;;;2.30;97.30;;;;;;5110373;28;20434;-84
2023/03/29 00:47:17;;;;;;;1.07;0.97;;;2.20;97.30;;;;;;5115253;28;20795;-85
2023/03/29 00:49:44;;;;;;;2.20;2.00;;;2.20;97.30;;;;;;5110939;28;21036;-83
2023/03/29 00:52:12;;;;;;;2.73;1.90;;;2.20;97.30;;;;;;5114660;28;20404;-87
2023/03/29 00:54:38;;;;;;;1.47;1.37;;;2.20;97.30;;;;;;5109090;28;20455;-84
2023/03/29 00:57:05;;;;;;;2.23;2.07;;;2.20;97.30;;;;;;5109197;28;20409;-84
2023/03/29 00:59:34;;;;;;;2.07;1.93;;;2.20;97.30;;;;;;5116368;28;20538;-85
2023/03/29 01:02:04;;;;;;;1.00;0.90;;;2.30;97.30;;;;;;5107051;28;20482;-83
2023/03/29 01:04:44;;;;;;;2.20;1.93;;;2.30;97.30;;;;;;5112017;28;20443;-86
2023/03/29 01:07:16;;;;;;;1.83;1.73;;;2.30;97.30;;;;;;5115847;28;20800;-84
2023/03/29 01:09:44;;;;;;;1.90;1.80;;;2.30;97.30;;;;;;5107034;28;20462;-88
2023/03/29 01:12:18;;;;;;;1.90;1.80;;;2.40;97.30;;;;;;5113132;28;20480;-85
2023/03/29 01:15:04;;;;;;;1.77;1.67;;;2.40;97.30;;;;;;5105332;28;20856;-87
2023/03/29 01:17:30;;;;;;;3.87;2.03;;;2.40;97.30;;;;;;5107133;28;20404;-87
2023/03/29 01:20:16;;;;;;;1.20;1.10;;;2.40;97.30;;;;;;5104299;28;20437;-84
2023/03/29 01:23:14;;;;;;;1.20;1.10;;;2.50;97.30;;;;;;5108580;28;20466;-84
2023/03/29 01:26:18;;;;;;;1.87;1.77;;;2.50;97.30;;;;;;5111191;28;20418;-85
2023/03/29 01:29:08;;;;;;;1.10;1.00;;;2.50;97.30;;;;;;5097668;28;20433;-84
2023/03/29 01:31:43;;;;;;;5.63;2.70;;;2.50;97.30;;;;;;5092812;28;20462;-85
2023/03/29 01:34:26;;;;;;;1.27;1.20;;;2.60;97.30;;;;;;5099248;28;20475;-85
2023/03/29 01:37:08;;;;;;;1.30;1.20;;;2.60;97.30;;;;;;5103455;28;20476;-85
2023/03/29 01:39:45;;;;;;;2.40;1.90;;;2.60;97.30;;;;;;5096152;28;20431;-83
2023/03/29 01:42:28;;;;;;;4.70;1.93;;;2.60;97.30;;;;;;5091662;28;20771;-87
2023/03/29 01:45:11;;;;;;;1.37;1.30;;;2.60;97.30;;;;;;5101159;28;20507;-87
2023/03/29 01:48:00;;;;;;;3.90;1.20;;;2.60;97.30;;;;;;5095805;28;20407;-87
2023/03/29 01:50:41;;;;;;;2.00;1.90;;;2.60;97.30;;;;;;5097970;28;20508;-87
2023/03/29 01:53:29;;;;;;;1.73;1.63;;;2.70;97.30;;;;;;5107809;28;20517;-87
2023/03/29 01:55:59;;;;;;;1.00;0.90;;;2.70;97.30;;;;;;5099734;28;20452;-87
2023/03/29 01:58:32;;;;;;;20.87;3.00;;;2.70;97.30;;;;;;5099460;28;20449;-87
2023/03/29 02:00:59;;;;;;;1.17;1.07;;;2.70;97.30;;;;;;5108295;28;20407;-88
2023/03/29 02:03:29;;;;;;;1.30;1.13;;;2.80;97.30;;;;;;5106426;28;20429;-87
2023/03/29 02:05:56;;;;;;;1.10;1.00;;;2.80;97.30;;;;;;5103819;28;20434;-87
2023/03/29 02:08:24;;;;;;;1.67;1.57;;;2.80;97.30;;;;;;5093167;28;20435;-87
2023/03/29 02:10:51;;;;;;;1.23;1.13;;;2.80;97.30;;;;;;5128898;28;20431;-88
2023/03/29 02:13:17;;;;;;;1.63;1.53;;;2.90;97.30;;;;;;5117013;28;20522;-87
2023/03/29 02:15:44;;;;;;;2.83;1.37;;;2.90;97.30;;;;;;5094700;28;20460;-87
2023/03/29 02:18:10;;;;;;;3.40;2.67;;;2.90;97.30;;;;;;5098063;28;20432;-87
2023/03/29 02:20:39;;;;;;;1.70;1.60;;;2.90;97.30;;;;;;5098794;28;20416;-87
2023/03/29 02:23:11;;;;;;;4.57;3.13;;;2.90;97.30;;;;;;5089372;28;20449;-87
2023/03/29 02:25:37;;;;;;;1.20;1.10;;;2.90;97.30;;;;;;5090369;28;20424;-87
2023/03/29 02:28:04;;;;;;;6.43;3.30;;;2.90;97.30;;;;;;5104881;28;20423;-87
2023/03/29 02:30:49;;;;;;;1.30;1.20;;;2.90;97.30;;;;;;5099777;28;20189;-87
2023/03/29 02:33:24;;;;;;;1.20;1.10;;;2.90;97.30;;;;;;5107888;28;20423;-87
2023/03/29 02:36:01;;;;;;;1.93;1.83;;;2.90;97.30;;;;;;5104008;28;20836;-87
2023/03/29 02:38:28;;;;;;;1.30;1.20;;;2.90;97.30;;;;;;5090266;28;20432;-87
2023/03/29 02:40:56;;;;;;;1.80;1.60;;;2.90;97.30;;;;;;5106166;28;20420;-87
2023/03/29 02:43:24;;;;;;;1.07;1.07;;;2.90;97.30;;;;;;5093647;28;20418;-87
2023/03/29 02:45:51;;;;;;;0.97;0.87;;;3.00;97.30;;;;;;5109851;28;20510;-87
2023/03/29 02:48:19;;;;;;;1.87;1.77;;;3.00;97.30;;;;;;5096621;28;20510;-87
2023/03/29 02:50:49;;;;;;;1.00;0.90;;;3.00;97.30;;;;;;5099250;28;20427;-88
2023/03/29 02:53:18;;;;;;;1.37;1.27;;;3.00;97.30;;;;;;5102627;28;20550;-87
2023/03/29 02:55:45;;;;;;;1.23;1.20;;;3.00;97.30;;;;;;5107443;28;20512;-87
2023/03/29 02:58:12;;;;;;;1.60;1.53;;;3.00;97.30;;;;;;5099721;28;20796;-87
2023/03/29 03:00:43;;;;;;;7.43;2.67;;;3.10;97.30;;;;;;5095584;28;20960;-87
2023/03/29 03:03:10;;;;;;;1.53;1.43;;;3.10;97.30;;;;;;5105421;28;20416;-87
2023/03/29 03:05:37;;;;;;;1.73;1.63;;;3.10;97.30;;;;;;5104668;28;20423;-88
2023/03/29 03:08:03;;;;;;;1.30;1.20;;;3.10;97.30;;;;;;5097096;28;20436;-87
2023/03/29 03:10:29;;;;;;;1.20;1.10;;;3.20;97.30;;;;;;5099728;28;20477;-88
2023/03/29 03:12:55;;;;;;;1.00;0.90;;;3.20;97.30;;;;;;5089882;28;20518;-87
2023/03/29 03:15:20;;;;;;;1.50;1.40;;;3.20;97.30;;;;;;5107112;28;20239;-87
2023/03/29 03:17:48;;;;;;;1.20;1.10;;;3.20;97.30;;;;;;5107829;28;20185;-87
2023/03/29 03:20:13;;;;;;;1.30;1.20;;;3.20;97.30;;;;;;5094693;28;20261;-87
2023/03/29 03:22:47;;;;;;;2.30;1.53;;;3.20;97.30;;;;;;5090737;28;20456;-87
2023/03/29 03:25:15;;;;;;;1.10;1.00;;;3.20;97.30;;;;;;5103202;28;20182;-87
2023/03/29 03:27:41;;;;;;;1.33;1.23;;;3.20;97.30;;;;;;5103521;28;20805;-87
2023/03/29 03:30:08;;;;;;;1.00;0.90;;;3.30;97.30;;;;;;5096127;28;20440;-87
2023/03/29 03:32:34;;;;;;;1.13;1.03;;;3.30;97.30;;;;;;5107801;28;20469;-87
2023/03/29 03:35:00;;;;;;;1.20;1.10;;;3.30;97.30;;;;;;5100579;28;20464;-88
2023/03/29 03:37:26;;;;;;;1.73;1.60;;;3.30;97.30;;;;;;5104542;28;20465;-88
2023/03/29 03:39:52;;;;;;;1.30;1.20;;;3.30;97.30;;;;;;5098976;28;20192;-87
2023/03/29 03:42:18;;;;;;;1.60;1.50;;;3.30;97.30;;;;;;5103751;28;20472;-87
2023/03/29 03:44:43;;;;;;;1.20;1.10;;;3.30;97.30;;;;;;5106298;28;20493;-87
2023/03/29 03:47:09;;;;;;;1.20;1.10;;;3.30;97.30;;;;;;5106272;28;20273;-87
2023/03/29 03:49:35;;;;;;;1.37;1.27;;;3.40;97.30;;;;;;5109913;28;20286;-87
2023/03/29 03:52:01;;;;;;;1.73;1.67;;;3.40;97.30;;;;;;5094943;28;20424;-87
2023/03/29 03:54:26;;;;;;;1.73;1.63;;;3.40;97.30;;;;;;5108616;28;20455;-87
2023/03/29 03:56:52;;;;;;;6.47;4.17;;;3.40;97.30;;;;;;5101776;28;20178;-86
2023/03/29 03:59:18;;;;;;;1.53;1.43;;;3.40;97.30;;;;;;5093414;28;20190;-86
2023/03/29 04:01:46;;;;;;;3.50;1.93;;;3.40;97.30;;;;;;5092470;28;20470;-88
2023/03/29 04:04:13;;;;;;;1.70;1.60;;;3.40;97.30;;;;;;5102886;28;20178;-87
2023/03/29 04:06:39;;;;;;;1.30;1.20;;;3.40;97.30;;;;;;5103567;28;20509;-87
2023/03/29 04:09:05;;;;;;;1.63;1.20;;;3.50;97.30;;;;;;5100417;28;20514;-87
2023/03/29 04:11:30;;;;;;;2.70;1.30;;;3.50;97.30;;;;;;5089994;28;20467;-87
2023/03/29 04:13:56;;;;;;;1.00;0.90;;;3.50;97.30;;;;;;5096720;28;20334;-87
2023/03/29 04:16:23;;;;;;;1.10;1.00;;;3.60;97.30;;;;;;5093636;28;20374;-87
2023/03/29 04:18:49;;;;;;;3.57;1.63;;;3.60;97.30;;;;;;5096236;28;20443;-86
2023/03/29 04:21:14;;;;;;;2.47;2.00;;;3.60;97.30;;;;;;5105278;28;20493;-86
2023/03/29 04:23:41;;;;;;;1.50;1.40;;;3.60;97.30;;;;;;5105845;28;20423;-86
2023/03/29 04:26:08;;;;;;;1.50;1.40;;;3.70;97.30;;;;;;5097854;28;20183;-87
2023/03/29 04:28:34;;;;;;;1.47;1.37;;;3.70;97.30;;;;;;5099658;28;20495;-87
2023/03/29 04:30:59;;;;;;;1.03;0.93;;;3.70;97.30;;;;;;5105144;28;20455;-87
2023/03/29 04:33:25;;;;;;;1.10;1.00;;;3.70;97.30;;;;;;5101130;28;20174;-87
2023/03/29 04:35:51;;;;;;;1.70;1.60;;;3.70;97.30;;;;;;5094957;28;20588;-87
2023/03/29 04:38:21;;;;;;;1.20;1.10;;;3.70;97.30;;;;;;5085109;28;20441;-85
2023/03/29 04:40:48;;;;;;;3.47;2.03;;;3.80;97.30;;;;;;5095668;28;20768;-85
2023/03/29 04:43:14;;;;;;;1.40;1.30;;;3.80;97.30;;;;;;5105359;28;20406;-85
2023/03/29 04:45:40;;;;;;;1.83;1.57;;;3.90;97.30;;;;;;5111118;28;20422;-83
2023/03/29 04:48:05;;;;;;;1.23;1.13;;;3.90;97.30;;;;;;5106063;28;20440;-84
2023/03/29 04:50:31;;;;;;;1.20;1.10;;;4.00;97.30;;;;;;5112564;28;20585;-86
2023/03/29 04:52:58;;;;;;;1.03;0.93;;;4.00;97.30;;;;;;5110415;28;20607;-85
2023/03/29 04:55:24;;;;;;;11.23;1.33;;;4.00;97.30;;;;;;5104168;28;20652;-83
2023/03/29 04:57:50;;;;;;;1.60;1.50;;;4.00;97.30;;;;;;5099562;28;20424;-84
2023/03/29 05:00:16;;;;;;;1.13;1.03;;;4.10;97.30;;;;;;5101511;28;20188;-84
2023/03/29 05:02:46;;;;;;;1.10;1.00;;;4.10;97.30;;;;;;5099741;28;20263;-85
2023/03/29 05:05:12;;;;;;;1.37;1.27;;;4.10;97.30;;;;;;5086466;28;20454;-84
2023/03/29 05:07:38;;;;;;;2.03;1.80;;;4.10;97.30;;;;;;5102737;28;20455;-84
2023/03/29 05:10:05;;;;;;;1.93;1.53;;;4.10;97.30;;;;;;5099023;28;20441;-85
2023/03/29 05:12:31;;;;;;;1.57;1.47;;;4.20;97.30;;;;;;5094204;28;20435;-87
2023/03/29 05:14:57;;;;;;;26.37;2.20;;;4.20;97.30;;;;;;5085290;28;20990;-86
2023/03/29 05:17:25;;;;;;;2.77;2.20;;;4.20;97.30;;;;;;5082375;28;20439;-86
2023/03/29 05:19:51;;;;;;;1.23;1.23;;;4.20;97.30;;;;;;5078855;28;20480;-87
2023/03/29 05:22:16;;;;;;;4.20;2.03;;;4.20;97.30;;;;;;5081703;28;20475;-87
2023/03/29 05:24:42;;;;;;;1.57;1.47;;;4.20;97.30;;;;;;5082594;28;20216;-87
2023/03/29 05:27:07;;;;;;;1.40;1.20;;;4.30;97.30;;;;;;5083725;28;20182;-86
2023/03/29 05:29:33;;;;;;;1.00;0.90;;;4.30;97.30;;;;;;5083968;28;20190;-86
2023/03/29 05:31:58;;;;;;;1.27;1.17;;;4.30;97.30;;;;;;5082770;28;20222;-87
2023/03/29 05:34:25;;;;;;;1.90;1.73;;;4.30;97.30;;;;;;5088388;28;20613;-87
2023/03/29 05:36:51;;;;;;;1.90;1.53;;;4.30;97.30;;;;;;5084482;28;20544;-86
2023/03/29 05:39:16;;;;;;;1.47;1.37;;;4.30;97.30;;;;;;5087916;28;20436;-87
2023/03/29 05:41:42;;;;;;;4.73;1.70;;;4.30;97.30;;;;;;5082879;28;20386;-86
2023/03/29 05:44:08;;;;;;;3.00;1.87;;;4.30;97.30;;;;;;5084706;28;20181;-87
2023/03/29 05:46:34;;;;;;;1.00;0.90;;;4.30;97.30;;;;;;5085657;28;20166;-86
2023/03/29 05:49:00;;;;;;;1.70;1.60;;;4.30;97.30;;;;;;5082672;28;20201;-87
2023/03/29 05:51:26;;;;;;;2.27;2.00;;;4.30;97.30;;;;;;5089389;28;20453;-87
2023/03/29 05:53:52;;;;;;;1.60;1.50;;;4.40;97.30;;;;;;5079475;28;20423;-87
2023/03/29 05:56:17;;;;;;;2.80;1.90;;;4.40;97.30;;;;;;5083958;28;20195;-86
2023/03/29 05:58:45;;;;;;;1.10;1.00;;;4.40;97.30;;;;;;5083020;28;20433;-87
2023/03/29 06:01:13;;;;;;;1.70;1.60;;;4.40;97.30;;;;;;5085135;28;20669;-87
2023/03/29 06:03:38;;;;;;;3.73;2.23;;;4.40;97.30;;;;;;5084249;28;20479;-87
2023/03/29 06:06:04;;;;;;;1.37;1.33;;;4.50;97.30;;;;;;5081864;28;20881;-86
2023/03/29 06:08:32;;;;;;;1.20;1.10;;;4.50;97.30;;;;;;5093063;28;21006;-87
2023/03/29 06:10:59;;;;;;;1.40;1.27;;;4.50;97.30;;;;;;5086526;28;20182;-87
2023/03/29 06:13:26;;;;;;;3.07;2.87;;;4.60;97.30;;;;;;5093901;28;20561;-85
2023/03/29 06:15:52;;;;;;;2.90;1.60;;;4.60;97.30;;;;;;5078876;28;21029;-86
2023/03/29 06:18:18;;;;;;;1.00;0.90;;;4.60;97.30;;;;;;5079127;28;20580;-86
2023/03/29 06:20:47;;;;;;;2.20;1.37;;;4.70;97.30;;;;;;5080244;28;20218;-87
2023/03/29 06:23:13;;;;;;;1.67;1.57;;;4.70;97.30;;;;;;5085712;28;20462;-86
2023/03/29 06:25:39;;;;;;;2.10;1.57;;;4.70;97.30;;;;;;5077678;28;20705;-86
2023/03/29 06:28:04;;;;;;;1.50;1.40;;;4.70;97.30;;;;;;5085004;28;20602;-88
2023/03/29 06:30:30;;;;;;;2.90;2.60;;;4.70;97.30;;;;;;5079500;28;20809;-87
2023/03/29 06:32:58;;;;;;;1.27;1.17;;;4.70;97.30;;;;;;5075097;28;20191;-87
2023/03/29 06:35:24;;;;;;;6.73;2.53;;;4.70;97.30;;;;;;5082190;28;20242;-87
2023/03/29 06:37:49;;;;;;;2.80;2.50;;;4.70;97.30;;;;;;5081815;28;20969;-86
2023/03/29 06:40:17;;;;;;;2.63;2.43;;;4.70;97.30;;;;;;5079889;28;20178;-87
2023/03/29 06:42:44;;;;;;;7.90;3.97;;;4.80;97.30;;;;;;5083224;28;20171;-87
2023/03/29 06:45:10;;;;;;;4.53;1.80;;;4.80;97.30;;;;;;5079961;28;20481;-86
2023/03/29 06:47:36;;;;;;;3.70;2.50;;;4.80;97.30;;;;;;5084590;28;20496;-86
2023/03/29 06:50:01;;;;;;;2.50;2.27;;;4.90;97.30;;;;;;5081626;28;20206;-86
2023/03/29 06:52:27;;;;;;;5.70;1.97;;;4.90;97.30;;;;;;5089219;28;20182;-87
2023/03/29 06:54:52;;;;;;;2.30;2.10;;;5.00;97.30;;;;;;5090237;28;20205;-87
2023/03/29 06:57:18;;;;;;;1.30;1.20;;;5.00;97.30;;;;;;5085153;28;20693;-87
2023/03/29 06:59:43;;;;;;;1.27;1.17;;;5.10;97.30;;;;;;5088156;28;20206;-87
2023/03/29 07:02:11;;;;;;;1.67;1.57;;;5.10;97.30;;;;;;5074574;28;20180;-84
2023/03/29 07:04:37;;;;;;;1.30;1.20;;;5.10;97.30;;;;;;5083645;28;20186;-87
2023/03/29 07:07:03;;;;;;;2.47;2.27;;;5.20;97.30;;;;;;5076859;28;20417;-87
2023/03/29 07:09:29;;;;;;;2.97;1.77;;;5.20;97.30;;;;;;5084487;28;20217;-87
2023/03/29 07:11:59;;;;;;;1.30;1.20;;;5.20;97.30;;;;;;5081944;28;20409;-87
2023/03/29 07:14:27;;;;;;;2.30;2.10;;;5.20;97.30;;;;;;5079208;28;20486;-86
2023/03/29 07:16:54;;;;;;;2.20;1.70;;;5.30;97.30;;;;;;5089185;28;20459;-86
2023/03/29 07:19:21;;;;;;;4.63;1.80;;;5.30;97.30;;;;;;5083702;28;20436;-87
2023/03/29 07:21:47;;;;;;;1.73;1.63;;;5.30;97.30;;;;;;5086891;28;20408;-86
2023/03/29 07:24:12;;;;;;;9.10;2.80;;;5.40;97.30;;;;;;5092759;28;20914;-86
2023/03/29 07:26:38;;;;;;;1.77;1.60;;;5.40;97.30;;;;;;5094321;28;20178;-87
2023/03/29 07:29:03;;;;;;;1.20;1.10;;;5.40;97.30;;;;;;5095267;28;20206;-87
2023/03/29 07:31:29;;;;;;;2.23;2.10;;;5.40;97.30;;;;;;5094305;28;20704;-87
2023/03/29 07:33:55;;;;;;;5.13;1.57;;;5.50;97.30;;;;;;5093376;28;20491;-86
2023/03/29 07:36:20;;;;;;;1.23;1.13;;;5.50;97.30;;;;;;5093353;28;20633;-86
2023/03/29 07:38:47;;;;;;;2.23;2.03;;;5.60;97.30;;;;;;5090490;28;20199;-86
2023/03/29 07:41:13;;;;;;;2.67;2.47;;;5.60;97.30;;;;;;5092439;28;20257;-87
2023/03/29 07:43:38;;;;;;;2.20;2.00;;;5.70;97.30;;;;;;5092648;28;20917;-86
2023/03/29 07:46:05;;;;;;;1.53;1.43;;;5.80;97.30;;;;;;5092453;28;20424;-86
2023/03/29 07:48:31;;;;;;;2.63;2.03;;;5.80;97.30;;;;;;5082009;28;20225;-86
2023/03/29 07:50:56;;;;;;;1.80;1.63;;;5.80;97.30;;;;;;5085093;28;20971;-87
2023/03/29 07:53:22;;;;;;;6.40;3.33;;;5.80;97.30;;;;;;5088650;28;20420;-86
2023/03/29 07:55:48;;;;;;;3.80;2.80;;;5.80;97.30;;;;;;5089967;28;20214;-86
2023/03/29 07:58:14;;;;;;;1.40;1.30;;;5.90;97.30;;;;;;5094445;28;20715;-86
2023/03/29 08:00:40;;;;;;;7.47;1.47;;;5.90;97.30;;;;;;5096268;28;20412;-86
2023/03/29 08:03:08;;;;;;;3.93;2.13;;;5.90;97.30;;;;;;5095307;28;20182;-87
2023/03/29 08:05:33;;;;;;;2.20;1.63;;;6.00;97.30;;;;;;5093350;28;20424;-86
2023/03/29 08:07:59;;;;;;;4.77;2.87;;;6.00;97.30;;;;;;5094152;28;20432;-86
2023/03/29 08:10:25;;;;;;;6.20;2.50;;;6.10;97.30;;;;;;5094617;28;20179;-85
2023/03/29 08:12:51;;;;;;;3.87;2.13;;;6.20;97.30;;;;;;5096822;28;20508;-85
2023/03/29 08:15:17;;;;;;;3.70;3.50;;;6.20;97.30;;;;;;5094796;28;20202;-87
2023/03/29 08:17:43;;;;;;;32.97;3.00;;;6.20;97.30;;;;;;5094685;28;20195;-87
2023/03/29 08:20:11;;;;;;;2.17;2.00;;;6.30;97.30;;;;;;5093956;28;20446;-87
2023/03/29 08:22:37;;;;;;;7.43;2.00;;;6.40;97.30;;;;;;5098715;28;20444;-87
2023/03/29 08:25:04;;;;;;;1.83;1.60;;;6.40;97.30;;;;;;5084218;28;20421;-87
2023/03/29 08:27:30;;;;;;;2.50;2.30;;;6.50;97.30;;;;;;5092667;28;20206;-87
2023/03/29 08:29:56;;;;;;;4.13;2.77;;;6.50;97.30;;;;;;5094556;28;20447;-87
2023/03/29 08:32:21;;;;;;;2.30;1.67;;;6.50;97.30;;;;;;5100072;28;20242;-87
2023/03/29 08:34:47;;;;;;;2.70;2.47;;;6.50;97.30;;;;;;5096835;28;20640;-87
2023/03/29 08:37:13;;;;;;;2.43;2.23;;;6.60;97.30;;;;;;5094377;28;20181;-87
2023/03/29 08:39:39;;;;;;;2.83;2.00;;;6.60;97.30;;;;;;5084828;28;20202;-87
2023/03/29 08:42:23;;;;;;;2.20;1.77;;;6.70;97.30;;;;;;5093588;28;20420;-87
2023/03/29 08:45:06;;;;;;;1.83;1.73;;;6.70;97.30;;;;;;5083837;28;20269;-87
2023/03/29 08:47:51;;;;;;;2.20;1.90;;;6.80;97.30;;;;;;5092061;28;20505;-86
2023/03/29 08:50:19;;;;;;;2.93;2.73;;;6.80;97.30;;;;;;5091773;28;20787;-86
2023/03/29 08:52:50;;;;;;;2.13;1.97;;;6.90;97.30;;;;;;5090150;28;20416;-87
2023/03/29 08:55:27;;;;;;;3.03;2.70;;;7.00;97.30;;;;;;5090092;28;20468;-87
2023/03/29 08:57:53;;;;;;;10.93;2.60;;;7.20;97.30;;;;;;5091070;28;20413;-87
2023/03/29 09:00:41;;;;;;;2.83;2.20;;;7.30;97.30;;;;;;5087052;28;20439;-87
2023/03/29 09:03:21;;;;;;;1.97;1.57;;;7.30;97.30;;;;;;5086315;28;20707;-88
2023/03/29 09:05:50;;;;;;;4.00;3.00;;;7.30;97.30;;;;;;5084007;28;20412;-87
2023/03/29 09:08:17;;;;;;;3.20;2.23;;;7.30;97.30;;;;;;5090823;28;20446;-87
2023/03/29 09:10:57;;;;;;;2.33;2.13;;;7.40;97.30;;;;;;5090129;28;20412;-86
2023/03/29 09:13:39;;;;;;;1.97;1.87;;;7.40;97.30;;;;;;5090269;28;20629;-87
2023/03/29 09:16:11;;;;;;;2.60;2.17;;;7.40;97.30;;;;;;5090043;28;20559;-87
2023/03/29 09:19:01;;;;;;;2.40;2.20;;;7.40;97.30;;;;;;5089876;28;20432;-86
2023/03/29 09:21:35;;;;;;;11.23;3.00;;;7.50;97.30;;;;;;5086516;28;20559;-87
2023/03/29 09:24:39;;;;;;;2.03;1.70;;;7.50;97.30;;;;;;5083551;28;20413;-87
2023/03/29 09:27:37;;;;;;;3.00;2.80;;;7.60;97.30;;;;;;5081228;28;20942;-87
2023/03/29 09:30:24;;;;;;;1.83;1.70;;;7.70;97.30;;;;;;5082441;28;20448;-88
2023/03/29 09:32:53;;;;;;;1.70;1.60;;;7.70;97.30;;;;;;5084893;28;20460;-87
2023/03/29 09:35:39;;;;;;;2.07;1.93;;;7.70;97.30;;;;;;5090066;28;20524;-87
2023/03/29 09:38:09;;;;;;;3.50;2.17;;;7.70;97.30;;;;;;5090473;28;20419;-87
2023/03/29 09:40:47;;;;;;;3.53;1.53;;;7.70;97.30;;;;;;5090658;28;20448;-87
2023/03/29 09:43:17;;;;;;;1.97;1.40;;;7.60;97.30;;;;;;5090547;28;20414;-86
2023/03/29 09:45:47;;;;;;;1.77;1.67;;;7.70;97.30;;;;;;5083802;28;20515;-88
2023/03/29 09:48:14;;;;;;;2.07;1.93;;;7.70;97.30;;;;;;5091887;28;20588;-86
2023/03/29 09:50:42;;;;;;;3.43;3.23;;;7.80;97.30;;;;;;5101937;28;20466;-88
2023/03/29 09:53:08;;;;;;;3.63;1.70;;;7.80;97.10;;;;;;5105653;28;20420;-88
2023/03/29 09:55:36;;;;;;;1.90;1.73;;;7.80;97.20;;;;;;5104843;28;20480;-87
2023/03/29 09:58:31;;;;;;;3.37;3.17;;;7.90;97.30;;;;;;5091899;28;20473;-87
2023/03/29 10:00:59;;;;;;;2.50;1.87;;;8.00;97.20;;;;;;5079419;28;20701;-87
2023/03/29 10:03:27;;;;;;;62.80;3.20;;;8.10;97.10;;;;;;5088080;28;20424;-87
2023/03/29 10:05:56;;;;;;;2.00;1.70;;;8.20;96.60;;;;;;5088331;28;21056;-87
2023/03/29 10:08:26;;;;;;;1.40;1.30;;;8.30;96.60;;;;;;5088179;28;20451;-87
2023/03/29 10:10:52;;;;;;;3.20;1.90;;;8.40;96.70;;;;;;5088808;28;20424;-87
2023/03/29 10:13:29;;;;;;;1.30;1.20;;;8.60;96.30;;;;;;5089049;28;20412;-88
2023/03/29 10:16:00;;;;;;;1.97;1.90;;;8.70;96.00;;;;;;5083802;28;20613;-87
2023/03/29 10:18:26;;;;;;;2.30;2.07;;;8.90;96.00;;;;;;5090606;28;20433;-86
2023/03/29 10:20:58;;;;;;;2.40;2.20;;;9.10;95.20;;;;;;5090755;28;20415;-87
2023/03/29 10:23:30;;;;;;;3.73;2.50;;;9.30;95.00;;;;;;5091012;28;20534;-86
2023/03/29 10:25:56;;;;;;;3.90;1.50;;;9.60;94.30;;;;;;5083328;28;20498;-87
2023/03/29 10:28:23;;;;;;;4.83;2.70;;;9.70;93.30;;;;;;5082800;28;20533;-87
2023/03/29 10:30:58;;;;;;;3.37;1.67;;;9.70;93.20;;;;;;5078147;28;20452;-87
2023/03/29 10:33:26;;;;;;;2.87;2.67;;;9.70;93.30;;;;;;5074457;28;20424;-87
2023/03/29 10:35:56;;;;;;;2.40;1.60;;;9.90;93.10;;;;;;5080500;28;20460;-87
2023/03/29 10:38:26;;;;;;;6.67;2.97;;;10.00;92.60;;;;;;5087645;28;20440;-87
2023/03/29 10:40:54;;;;;;;2.23;2.03;;;10.10;92.80;;;;;;5088406;28;20839;-87
2023/03/29 10:43:28;;;;;;;2.37;2.07;;;10.20;92.20;;;;;;5088476;28;20471;-87
2023/03/29 10:46:03;;;;;;;8.30;2.20;;;10.30;92.00;;;;;;5088841;28;20826;-87
2023/03/29 10:48:30;;;;;;;6.23;3.33;;;10.40;92.40;;;;;;5089737;28;20435;-87
2023/03/29 10:51:00;;;;;;;1.70;1.60;;;10.50;91.60;;;;;;5089621;28;20938;-87
2023/03/29 10:53:29;;;;;;;1.47;1.37;;;10.50;90.60;;;;;;5093555;28;21007;-87
2023/03/29 10:56:13;;;;;;;1.47;1.37;;;10.40;91.40;;;;;;5092792;28;20562;-87
2023/03/29 10:59:22;;;;;;;2.57;2.37;;;10.40;91.20;;;;;;5092356;28;20881;-87
2023/03/29 11:02:11;;;;;;;1.27;1.00;;;10.70;91.70;;;;;;5085002;28;20420;-87
2023/03/29 11:05:15;;;;;;;1.57;1.33;;;10.70;91.20;;;;;;5093061;28;20413;-86
2023/03/29 11:08:11;;;;;;;1.90;1.80;;;10.80;91.30;;;;;;5080442;28;20523;-87
2023/03/29 11:10:39;;;;;;;1.77;1.53;;;10.80;90.80;;;;;;5092851;28;20424;-87
2023/03/29 11:13:23;;;;;;;2.00;1.90;;;10.90;90.40;;;;;;5092931;28;20449;-87
2023/03/29 11:15:55;;;;;;;4.30;2.60;;;10.80;90.30;;;;;;5084785;28;20463;-87
2023/03/29 11:19:03;;;;;;;2.00;1.70;;;10.80;90.70;;;;;;5092328;28;20997;-87
2023/03/29 11:21:45;;;;;;;4.53;2.30;;;10.80;90.80;;;;;;5091334;28;20412;-87
2023/03/29 11:24:29;;;;;;;4.83;2.30;;;10.90;90.60;;;;;;5083949;28;20416;-87
2023/03/29 11:27:08;;;;;;;2.40;1.77;;;11.00;90.00;;;;;;5084929;28;20477;-87
2023/03/29 11:29:47;;;;;;;1.47;1.37;;;11.10;89.70;;;;;;5092751;28;20467;-87
2023/03/29 11:32:33;;;;;;;1.40;1.30;;;11.10;90.00;;;;;;5093536;28;20565;-87
2023/03/29 11:35:11;;;;;;;6.63;3.13;;;11.20;89.10;;;;;;5086377;28;20456;-87
2023/03/29 11:37:46;;;;;;;3.53;2.73;;;11.20;89.40;;;;;;5093018;28;20416;-87
2023/03/29 11:40:21;;;;;;;2.47;2.33;;;11.20;88.90;;;;;;5092098;28;20564;-87
2023/03/29 11:42:52;;;;;;;2.40;2.20;;;11.20;89.40;;;;;;5084010;28;20486;-84
2023/03/29 11:45:28;;;;;;;1.83;1.73;;;11.10;89.00;;;;;;5091715;28;20417;-84
2023/03/29 11:47:58;;;;;;;1.90;1.73;;;11.20;89.50;;;;;;5091910;28;20424;-85
2023/03/29 11:50:34;;;;;;;6.63;2.17;;;11.30;89.70;;;;;;5093200;28;20864;-87
2023/03/29 11:53:10;;;;;;;1.40;1.30;;;11.50;89.60;;;;;;5091680;28;20420;-87
2023/03/29 11:55:38;;;;;;;1.70;1.60;;;11.70;89.10;;;;;;5091561;28;20484;-87
2023/03/29 11:58:11;;;;;;;1.83;1.40;;;11.80;88.90;;;;;;5091338;28;20417;-86
2023/03/29 12:00:43;;;;;;;1.80;1.77;;;11.80;87.60;;;;;;5091385;28;20919;-87
2023/03/29 12:03:35;;;;;;;2.80;1.73;;;11.80;88.50;;;;;;5091148;28;20730;-87
2023/03/29 12:06:05;;;;;;;10.13;2.53;;;12.20;88.60;;;;;;5085181;28;20425;-87
2023/03/29 12:08:36;;;;;;;1.33;1.23;;;12.60;88.20;;;;;;5091387;28;20434;-87
2023/03/29 12:11:27;;;;;;;1.80;1.57;;;12.70;87.00;;;;;;5091262;28;20505;-87
2023/03/29 12:14:13;;;;;;;25.50;2.47;;;12.50;86.30;;;;;;5083797;28;20478;-87
2023/03/29 12:16:41;;;;;;;6.67;3.17;;;12.40;87.40;;;;;;5090548;28;20467;-86
2023/03/29 12:19:31;;;;;;;5.03;1.87;;;12.40;87.40;;;;;;5087461;28;20959;-87
2023/03/29 12:21:59;;;;;;;2.07;1.63;;;12.50;87.00;;;;;;5101053;28;20432;-87
2023/03/29 12:24:44;;;;;;;2.20;1.30;;;12.80;86.90;;;;;;5091220;28;20416;-87
2023/03/29 12:27:27;;;;;;;3.60;1.80;;;13.00;85.80;;;;;;5091628;28;20420;-87
2023/03/29 12:30:23;;;;;;;1.50;1.40;;;13.00;86.00;;;;;;5083922;28;20493;-88
2023/03/29 12:33:20;;;;;;;2.83;2.20;;;12.90;86.00;;;;;;5091792;28;20484;-87
2023/03/29 12:36:15;;;;;;;1.77;1.70;;;12.90;86.50;;;;;;5091163;28;20952;-88
2023/03/29 12:38:42;;;;;;;1.60;1.50;;;12.80;86.50;;;;;;5090552;28;20449;-87
2023/03/29 12:41:18;;;;;;;2.70;2.03;;;12.60;86.90;;;;;;5090423;28;20431;-87
2023/03/29 12:43:45;;;;;;;1.93;1.83;;;12.70;87.10;;;;;;5090573;28;21191;-88
2023/03/29 12:46:25;;;;;;;2.60;1.50;;;12.90;87.80;;;;;;5091262;28;20447;-87
2023/03/29 12:49:04;;;;;;;11.37;3.63;;;13.10;87.30;;;;;;5081984;28;20469;-87
2023/03/29 12:51:32;;;;;;;3.23;1.73;;;13.10;86.10;;;;;;5090951;28;20493;-88
2023/03/29 12:54:16;;;;;;;2.40;1.63;;;13.00;86.80;;;;;;5090586;28;20427;-87
2023/03/29 12:56:51;;;;;;;4.50;2.70;;;12.70;87.30;;;;;;5090835;28;20476;-87
2023/03/29 12:59:26;;;;;;;1.87;1.50;;;12.50;88.00;;;;;;5089860;28;20444;-87
2023/03/29 13:02:08;;;;;;;1.53;1.47;;;12.30;88.10;;;;;;5082169;28;20434;-87
2023/03/29 13:04:55;;;;;;;4.40;2.13;;;12.20;88.60;;;;;;5091378;28;20447;-87
2023/03/29 13:07:26;;;;;;;1.27;1.17;;;12.20;88.20;;;;;;5090598;28;20420;-87
2023/03/29 13:09:54;;;;;;;4.40;1.90;;;12.30;89.10;;;;;;5090945;28;20432;-88
2023/03/29 13:12:19;;;;;;;8.10;2.90;;;12.30;88.90;;;;;;5090246;28;20427;-88
2023/03/29 13:14:59;;;;;;;1.03;0.93;;;12.40;88.90;;;;;;5090539;28;20409;-87